createdAt,value
2023-03-19T00:00:06.142Z,9.11
2023-03-19T00:01:06.108Z,9.10
2023-03-19T00:02:16.563Z,9.13
2023-03-19T00:03:06.182Z,9.02
2023-03-19T00:04:06.053Z,8.95
2023-03-19T00:05:06.039Z,8.96
2023-03-19T00:06:06.018Z,8.96
2023-03-19T00:07:06.004Z,8.96
2023-03-19T00:08:06.008Z,8.91
2023-03-19T00:09:05.969Z,8.98
2023-03-19T00:10:05.961Z,8.92
2023-03-19T00:11:05.962Z,9.01
2023-03-19T00:12:05.953Z,8.94
2023-03-19T00:13:05.905Z,8.99
2023-03-19T00:14:05.904Z,9.05
2023-03-19T00:15:05.895Z,9.05
2023-03-19T00:16:05.856Z,9.13
2023-03-19T00:17:05.852Z,9.01
2023-03-19T00:18:05.821Z,9.10
2023-03-19T00:19:05.818Z,9.04
2023-03-19T00:20:05.816Z,9.10
2023-03-19T00:21:05.791Z,9.08
2023-03-19T00:22:05.759Z,9.01
2023-03-19T00:23:05.770Z,9.13
2023-03-19T00:24:05.723Z,8.95
2023-03-19T00:25:05.709Z,8.99
2023-03-19T00:26:05.689Z,8.94
2023-03-19T00:27:05.671Z,8.94
2023-03-19T00:28:05.685Z,8.92
2023-03-19T00:29:05.641Z,8.86
2023-03-19T00:30:05.645Z,8.89
2023-03-19T00:31:05.656Z,8.98
2023-03-19T00:32:05.589Z,9.01
2023-03-19T00:33:05.737Z,8.99
2023-03-19T00:34:05.559Z,9.04
2023-03-19T00:35:05.553Z,8.94
2023-03-19T00:36:05.579Z,8.98
2023-03-19T00:37:05.528Z,8.89
2023-03-19T00:38:05.581Z,8.94
2023-03-19T00:39:05.477Z,8.95
2023-03-19T00:40:05.478Z,8.98
2023-03-19T00:41:05.444Z,8.91
2023-03-19T00:42:05.429Z,8.84
2023-03-19T00:43:05.405Z,8.91
2023-03-19T00:44:05.454Z,8.92
2023-03-19T00:45:05.391Z,8.81
2023-03-19T00:46:05.419Z,8.77
2023-03-19T00:47:05.344Z,8.68
2023-03-19T00:48:05.330Z,8.65
2023-03-19T00:49:05.315Z,8.63
2023-03-19T00:50:05.296Z,8.71
2023-03-19T00:51:05.276Z,8.62
2023-03-19T00:52:05.263Z,8.61
2023-03-19T00:53:05.311Z,8.61
2023-03-19T00:54:05.229Z,8.63
2023-03-19T00:55:05.206Z,8.62
2023-03-19T00:56:05.198Z,8.56
2023-03-19T00:57:05.175Z,8.61
2023-03-19T00:58:05.158Z,8.62
2023-03-19T00:59:05.175Z,8.66
2023-03-19T01:00:05.156Z,8.55
2023-03-19T01:01:05.165Z,8.53
2023-03-19T01:02:05.093Z,8.53
2023-03-19T01:03:05.072Z,8.53
2023-03-19T01:04:05.069Z,8.56
2023-03-19T01:05:05.071Z,8.56
2023-03-19T01:06:05.023Z,8.61
2023-03-19T01:07:05.004Z,8.61
2023-03-19T01:08:05.050Z,8.65
2023-03-19T01:09:04.968Z,8.68
2023-03-19T01:10:04.957Z,8.71
2023-03-19T01:11:04.936Z,8.77
2023-03-19T01:12:04.930Z,8.73
2023-03-19T01:13:04.902Z,8.76
2023-03-19T01:14:04.893Z,8.73
2023-03-19T01:15:04.896Z,8.73
2023-03-19T01:16:04.872Z,8.70
2023-03-19T01:17:04.838Z,8.77
2023-03-19T01:18:04.821Z,8.81
2023-03-19T01:19:04.806Z,8.77
2023-03-19T01:20:04.820Z,8.73
2023-03-19T01:21:04.774Z,8.77
2023-03-19T01:22:04.759Z,8.68
2023-03-19T01:23:04.769Z,8.77
2023-03-19T01:24:04.718Z,8.59
2023-03-19T01:25:04.702Z,8.74
2023-03-19T01:26:04.692Z,8.73
2023-03-19T01:27:04.672Z,8.77
2023-03-19T01:28:04.713Z,8.74
2023-03-19T01:29:04.642Z,8.73
2023-03-19T01:30:04.619Z,8.65
2023-03-19T01:31:04.634Z,8.77
2023-03-19T01:32:04.589Z,8.74
2023-03-19T01:33:04.648Z,8.71
2023-03-19T01:34:04.586Z,8.62
2023-03-19T01:35:04.536Z,8.73
2023-03-19T01:36:04.581Z,8.63
2023-03-19T01:37:04.525Z,8.61
2023-03-19T01:38:04.486Z,8.68
2023-03-19T01:39:04.501Z,8.73
2023-03-19T01:40:04.459Z,8.63
2023-03-19T01:41:04.438Z,8.73
2023-03-19T01:42:04.433Z,8.61
2023-03-19T01:43:04.407Z,8.63
2023-03-19T01:44:04.416Z,8.63
2023-03-19T01:45:04.371Z,8.68
2023-03-19T01:46:04.415Z,8.70
2023-03-19T01:47:04.334Z,8.63
2023-03-19T01:48:04.320Z,8.61
2023-03-19T01:49:04.302Z,8.58
2023-03-19T01:50:04.311Z,8.71
2023-03-19T01:51:04.270Z,8.70
2023-03-19T01:52:04.299Z,8.68
2023-03-19T01:53:04.243Z,8.56
2023-03-19T01:54:04.234Z,8.62
2023-03-19T01:55:04.205Z,8.66
2023-03-19T01:56:04.190Z,8.61
2023-03-19T01:57:04.169Z,8.61
2023-03-19T01:58:04.196Z,8.65
2023-03-19T01:59:04.134Z,8.66
2023-03-19T02:00:04.139Z,8.58
2023-03-19T02:01:04.104Z,8.62
2023-03-19T02:02:04.081Z,8.58
2023-03-19T02:03:04.083Z,8.62
2023-03-19T02:04:04.105Z,8.55
2023-03-19T02:05:04.036Z,8.53
2023-03-19T02:06:04.016Z,8.47
2023-03-19T02:07:04.055Z,8.41
2023-03-19T02:08:03.982Z,8.45
2023-03-19T02:09:04.073Z,8.44
2023-03-19T02:10:03.957Z,8.41
2023-03-19T02:11:03.931Z,8.40
2023-03-19T02:12:03.911Z,8.43
2023-03-19T02:13:03.975Z,8.52
2023-03-19T02:14:03.886Z,8.53
2023-03-19T02:15:03.864Z,8.56
2023-03-19T02:16:03.868Z,8.48
2023-03-19T02:17:03.871Z,8.56
2023-03-19T02:18:03.816Z,8.58
2023-03-19T02:19:03.838Z,8.62
2023-03-19T02:20:03.785Z,8.59
2023-03-19T02:21:03.765Z,8.62
2023-03-19T02:22:03.753Z,8.77
2023-03-19T02:23:03.755Z,8.74
2023-03-19T02:24:03.712Z,8.66
2023-03-19T02:25:03.712Z,8.66
2023-03-19T02:26:03.678Z,8.65
2023-03-19T02:27:03.668Z,8.59
2023-03-19T02:28:03.672Z,8.53
2023-03-19T02:29:03.627Z,8.58
2023-03-19T02:30:03.613Z,8.55
2023-03-19T02:31:03.645Z,8.53
2023-03-19T02:32:03.580Z,8.59
2023-03-19T02:33:03.609Z,8.56
2023-03-19T02:34:03.563Z,8.61
2023-03-19T02:35:03.526Z,8.52
2023-03-19T02:36:03.631Z,8.62
2023-03-19T02:37:03.508Z,8.63
2023-03-19T02:38:03.476Z,8.68
2023-03-19T02:39:03.462Z,8.65
2023-03-19T02:40:03.443Z,8.66
2023-03-19T02:41:03.436Z,8.62
2023-03-19T02:42:03.432Z,8.66
2023-03-19T02:43:03.420Z,8.59
2023-03-19T02:44:03.378Z,8.62
2023-03-19T02:45:03.369Z,8.77
2023-03-19T02:46:03.366Z,8.63
2023-03-19T02:47:03.357Z,8.66
2023-03-19T02:48:03.316Z,8.58
2023-03-19T02:49:03.292Z,8.61
2023-03-19T02:50:03.303Z,8.53
2023-03-19T02:51:03.261Z,8.48
2023-03-19T02:52:03.272Z,8.45
2023-03-19T02:53:03.226Z,8.44
2023-03-19T02:54:03.235Z,8.45
2023-03-19T02:55:03.207Z,8.40
2023-03-19T02:56:03.176Z,8.45
2023-03-19T02:57:03.204Z,8.45
2023-03-19T02:58:03.150Z,8.38
2023-03-19T02:59:03.132Z,8.40
2023-03-19T03:00:03.129Z,8.26
2023-03-19T03:01:03.226Z,8.29
2023-03-19T03:02:03.195Z,8.30
2023-03-19T03:03:03.068Z,8.25
2023-03-19T03:04:03.046Z,8.25
2023-03-19T03:05:03.093Z,8.20
2023-03-19T03:06:03.014Z,8.16
2023-03-19T03:07:03.018Z,8.26
2023-03-19T03:08:03.002Z,8.25
2023-03-19T03:09:02.967Z,8.33
2023-03-19T03:10:02.944Z,8.23
2023-03-19T03:11:02.940Z,8.26
2023-03-19T03:12:02.912Z,8.23
2023-03-19T03:13:02.907Z,8.18
2023-03-19T03:14:02.889Z,8.22
2023-03-19T03:15:02.890Z,8.23
2023-03-19T03:16:02.889Z,8.34
2023-03-19T03:17:02.833Z,8.26
2023-03-19T03:18:02.819Z,8.19
2023-03-19T03:19:02.804Z,8.16
2023-03-19T03:20:02.821Z,8.12
2023-03-19T03:21:02.764Z,8.16
2023-03-19T03:22:02.775Z,8.16
2023-03-19T03:23:02.748Z,8.19
2023-03-19T03:24:02.711Z,8.22
2023-03-19T03:25:02.698Z,8.28
2023-03-19T03:26:02.708Z,8.29
2023-03-19T03:27:02.701Z,8.29
2023-03-19T03:28:02.703Z,8.33
2023-03-19T03:29:02.645Z,8.34
2023-03-19T03:30:02.618Z,8.30
2023-03-19T03:31:02.595Z,8.33
2023-03-19T03:32:02.578Z,8.33
2023-03-19T03:33:02.589Z,8.38
2023-03-19T03:34:02.620Z,8.34
2023-03-19T03:35:02.529Z,8.33
2023-03-19T03:36:02.513Z,8.37
2023-03-19T03:37:02.494Z,8.26
2023-03-19T03:38:02.480Z,8.20
2023-03-19T03:39:02.461Z,8.26
2023-03-19T03:40:02.470Z,8.28
2023-03-19T03:41:02.431Z,8.28
2023-03-19T03:42:02.425Z,8.25
2023-03-19T03:43:02.395Z,8.28
2023-03-19T03:44:02.401Z,8.30
2023-03-19T03:45:02.369Z,8.28
2023-03-19T03:46:02.393Z,8.26
2023-03-19T03:47:02.327Z,8.29
2023-03-19T03:48:02.308Z,8.36
2023-03-19T03:49:02.322Z,8.25
2023-03-19T03:50:02.273Z,8.36
2023-03-19T03:51:02.260Z,8.34
2023-03-19T03:52:02.246Z,8.37
2023-03-19T03:53:02.223Z,8.33
2023-03-19T03:54:02.245Z,8.37
2023-03-19T03:55:02.192Z,8.29
2023-03-19T03:56:02.172Z,8.30
2023-03-19T03:57:03.632Z,8.29
2023-03-19T03:58:02.143Z,8.30
2023-03-19T03:59:02.136Z,8.23
2023-03-19T04:00:02.111Z,8.28
2023-03-19T04:01:02.098Z,8.29
2023-03-19T04:02:02.140Z,8.37
2023-03-19T04:03:02.086Z,8.22
2023-03-19T04:04:02.078Z,8.22
2023-03-19T04:05:02.022Z,8.25
2023-03-19T04:06:02.229Z,8.28
2023-03-19T04:07:02.000Z,8.29
2023-03-19T04:08:01.972Z,8.16
2023-03-19T04:09:01.983Z,8.19
2023-03-19T04:10:01.976Z,8.22
2023-03-19T04:11:01.923Z,8.26
2023-03-19T04:12:01.916Z,8.25
2023-03-19T04:13:01.895Z,8.20
2023-03-19T04:14:01.899Z,8.33
2023-03-19T04:15:01.853Z,8.30
2023-03-19T04:16:01.845Z,8.29
2023-03-19T04:17:01.831Z,8.26
2023-03-19T04:18:01.824Z,8.30
2023-03-19T04:19:01.788Z,8.16
2023-03-19T04:20:01.794Z,8.12
2023-03-19T04:21:01.749Z,8.05
2023-03-19T04:22:01.739Z,8.08
2023-03-19T04:23:01.717Z,8.12
2023-03-19T04:24:01.728Z,8.04
2023-03-19T04:25:01.692Z,8.05
2023-03-19T04:26:01.686Z,8.05
2023-03-19T04:27:01.647Z,8.07
2023-03-19T04:28:01.640Z,8.08
2023-03-19T04:29:01.641Z,8.07
2023-03-19T04:30:01.602Z,8.05
2023-03-19T04:31:01.604Z,8.07
2023-03-19T04:32:01.562Z,8.08
2023-03-19T04:33:01.610Z,8.10
2023-03-19T04:34:01.562Z,8.08
2023-03-19T04:35:01.540Z,8.10
2023-03-19T04:36:01.554Z,8.11
2023-03-19T04:37:01.489Z,8.08
2023-03-19T04:38:01.464Z,8.05
2023-03-19T04:39:01.448Z,8.05
2023-03-19T04:40:01.454Z,8.04
2023-03-19T04:41:01.414Z,8.07
2023-03-19T04:42:01.424Z,8.01
2023-03-19T04:43:01.392Z,8.01
2023-03-19T04:44:01.359Z,8.01
2023-03-19T04:45:01.343Z,7.87
2023-03-19T04:46:01.387Z,7.92
2023-03-19T04:47:01.313Z,7.92
2023-03-19T04:48:01.317Z,7.93
2023-03-19T04:49:01.282Z,7.92
2023-03-19T04:50:01.257Z,7.92
2023-03-19T04:51:01.240Z,7.85
2023-03-19T04:52:01.252Z,7.90
2023-03-19T04:53:01.211Z,7.85
2023-03-19T04:54:01.190Z,7.87
2023-03-19T04:55:01.201Z,7.82
2023-03-19T04:56:01.154Z,7.83
2023-03-19T04:57:01.136Z,7.77
2023-03-19T04:58:01.173Z,7.83
2023-03-19T04:59:01.107Z,7.80
2023-03-19T05:00:01.094Z,7.75
2023-03-19T05:01:01.079Z,7.83
2023-03-19T05:02:01.180Z,7.77
2023-03-19T05:03:01.034Z,7.74
2023-03-19T05:04:01.031Z,7.83
2023-03-19T05:05:01.039Z,7.82
2023-03-19T05:06:00.990Z,7.75
2023-03-19T05:07:00.973Z,7.75
2023-03-19T05:08:00.947Z,7.71
2023-03-19T05:09:00.939Z,7.72
2023-03-19T05:10:00.977Z,7.64
2023-03-19T05:11:00.913Z,7.68
2023-03-19T05:12:00.883Z,7.68
2023-03-19T05:13:00.863Z,7.61
2023-03-19T05:14:00.842Z,7.58
2023-03-19T05:15:00.834Z,7.64
2023-03-19T05:16:00.808Z,7.63
2023-03-19T05:17:00.791Z,7.64
2023-03-19T05:18:00.777Z,7.60
2023-03-19T05:19:00.758Z,7.58
2023-03-19T05:20:00.832Z,7.61
2023-03-19T05:21:00.742Z,7.60
2023-03-19T05:22:00.703Z,7.60
2023-03-19T05:23:00.704Z,7.57
2023-03-19T05:24:00.708Z,7.60
2023-03-19T05:25:00.659Z,7.67
2023-03-19T05:26:00.663Z,7.58
2023-03-19T05:27:00.620Z,7.64
2023-03-19T05:28:00.606Z,7.61
2023-03-19T05:29:00.601Z,7.69
2023-03-19T05:30:00.572Z,7.64
2023-03-19T05:31:00.625Z,7.63
2023-03-19T05:32:00.541Z,7.68
2023-03-19T05:33:00.575Z,7.58
2023-03-19T05:34:00.564Z,7.69
2023-03-19T05:35:00.487Z,7.61
2023-03-19T05:36:00.501Z,7.61
2023-03-19T05:37:00.461Z,7.60
2023-03-19T05:38:00.426Z,7.64
2023-03-19T05:39:00.408Z,7.72
2023-03-19T05:40:00.419Z,7.69
2023-03-19T05:41:00.382Z,7.58
2023-03-19T05:42:00.355Z,7.61
2023-03-19T05:43:00.341Z,7.68
2023-03-19T05:44:00.325Z,7.60
2023-03-19T05:45:00.334Z,7.58
2023-03-19T05:46:00.292Z,7.69
2023-03-19T05:47:00.276Z,7.63
2023-03-19T05:48:00.261Z,7.64
2023-03-19T05:49:00.236Z,7.64
2023-03-19T05:50:00.277Z,7.71
2023-03-19T05:51:00.199Z,7.69
2023-03-19T05:52:00.204Z,7.63
2023-03-19T05:53:00.312Z,7.67
2023-03-19T05:54:00.148Z,7.68
2023-03-19T05:55:00.129Z,7.67
2023-03-19T05:56:00.135Z,7.74
2023-03-19T05:57:00.104Z,7.74
2023-03-19T05:58:00.104Z,7.83
2023-03-19T05:59:00.096Z,7.75
2023-03-19T06:00:00.041Z,7.85
2023-03-19T06:01:00.076Z,7.82
2023-03-19T06:02:00.010Z,7.83
2023-03-19T06:03:00.012Z,7.85
2023-03-19T06:04:00.024Z,7.83
2023-03-19T06:04:59.956Z,7.82
2023-03-19T06:06:00.012Z,7.82
2023-03-19T06:06:59.922Z,7.83
2023-03-19T06:07:59.904Z,7.82
2023-03-19T06:08:59.908Z,7.86
2023-03-19T06:09:59.870Z,7.80
2023-03-19T06:10:59.858Z,7.86
2023-03-19T06:11:59.870Z,7.92
2023-03-19T06:12:59.819Z,7.87
2023-03-19T06:13:59.805Z,7.90
2023-03-19T06:14:59.783Z,7.97
2023-03-19T06:15:59.871Z,7.90
2023-03-19T06:16:59.753Z,7.92
2023-03-19T06:17:59.757Z,7.90
2023-03-19T06:18:59.720Z,7.95
2023-03-19T06:19:59.697Z,8.04
2023-03-19T06:20:59.680Z,8.01
2023-03-19T06:21:59.690Z,8.01
2023-03-19T06:22:59.644Z,8.00
2023-03-19T06:23:59.662Z,7.92
2023-03-19T06:24:59.747Z,8.02
2023-03-19T06:25:59.597Z,8.02
2023-03-19T06:26:59.576Z,8.02
2023-03-19T06:27:59.561Z,8.01
2023-03-19T06:28:59.584Z,8.07
2023-03-19T06:29:59.534Z,8.00
2023-03-19T06:30:59.528Z,8.10
2023-03-19T06:31:59.495Z,8.08
2023-03-19T06:32:59.500Z,8.04
2023-03-19T06:33:59.465Z,8.05
2023-03-19T06:34:59.446Z,8.05
2023-03-19T06:35:59.528Z,8.07
2023-03-19T06:36:59.424Z,8.07
2023-03-19T06:37:59.400Z,8.16
2023-03-19T06:38:59.377Z,8.07
2023-03-19T06:39:59.405Z,8.10
2023-03-19T06:40:59.351Z,8.19
2023-03-19T06:41:59.406Z,8.28
2023-03-19T06:42:59.324Z,8.33
2023-03-19T06:43:59.293Z,8.30
2023-03-19T06:44:59.273Z,8.37
2023-03-19T06:45:59.343Z,8.37
2023-03-19T06:46:59.276Z,8.48
2023-03-19T06:47:59.226Z,8.50
2023-03-19T06:48:59.208Z,8.48
2023-03-19T06:49:59.233Z,8.55
2023-03-19T06:50:59.182Z,8.65
2023-03-19T06:51:59.160Z,8.62
2023-03-19T06:52:59.167Z,8.70
2023-03-19T06:53:59.127Z,8.68
2023-03-19T06:54:59.115Z,8.76
2023-03-19T06:55:59.121Z,8.83
2023-03-19T06:56:59.086Z,8.94
2023-03-19T06:57:59.086Z,8.94
2023-03-19T06:58:59.040Z,9.04
2023-03-19T06:59:59.028Z,9.11
2023-03-19T07:00:59.022Z,9.10
2023-03-19T07:01:58.999Z,9.21
2023-03-19T07:02:58.973Z,9.24
2023-03-19T07:03:59.004Z,9.23
2023-03-19T07:04:58.945Z,9.33
2023-03-19T07:05:58.928Z,9.39
2023-03-19T07:06:58.944Z,9.43
2023-03-19T07:07:58.923Z,9.42
2023-03-19T07:08:58.876Z,9.42
2023-03-19T07:09:58.875Z,9.48
2023-03-19T07:10:58.842Z,9.50
2023-03-19T07:11:58.831Z,9.48
2023-03-19T07:12:58.844Z,9.47
2023-03-19T07:13:58.794Z,9.57
2023-03-19T07:14:58.783Z,9.58
2023-03-19T07:15:58.763Z,9.64
2023-03-19T07:16:58.745Z,9.68
2023-03-19T07:17:58.759Z,9.72
2023-03-19T07:18:58.718Z,9.72
2023-03-19T07:19:58.719Z,9.81
2023-03-19T07:20:58.681Z,9.65
2023-03-19T07:21:58.668Z,9.76
2023-03-19T07:22:58.678Z,9.71
2023-03-19T07:23:58.633Z,9.69
2023-03-19T07:24:58.642Z,9.68
2023-03-19T07:25:58.621Z,9.69
2023-03-19T07:26:58.584Z,9.69
2023-03-19T07:27:58.577Z,9.71
2023-03-19T07:28:58.590Z,9.71
2023-03-19T07:29:58.537Z,9.60
2023-03-19T07:30:58.525Z,9.72
2023-03-19T07:31:58.549Z,9.72
2023-03-19T07:32:58.560Z,9.72
2023-03-19T07:33:58.501Z,9.68
2023-03-19T07:34:58.455Z,9.75
2023-03-19T07:35:58.474Z,9.65
2023-03-19T07:36:58.428Z,9.60
2023-03-19T07:37:58.408Z,9.47
2023-03-19T07:38:58.444Z,9.56
2023-03-19T07:39:58.375Z,9.51
2023-03-19T07:41:02.509Z,9.48
2023-03-19T07:41:58.344Z,9.47
2023-03-19T07:42:58.328Z,9.50
2023-03-19T07:43:58.310Z,9.48
2023-03-19T07:44:58.351Z,9.48
2023-03-19T07:45:58.341Z,9.57
2023-03-19T07:46:58.267Z,9.58
2023-03-19T07:47:58.247Z,9.58
2023-03-19T07:48:58.234Z,9.60
2023-03-19T07:49:58.236Z,9.57
2023-03-19T07:50:58.205Z,9.58
2023-03-19T07:51:58.183Z,9.64
2023-03-19T07:52:58.194Z,9.60
2023-03-19T07:53:58.185Z,9.64
2023-03-19T07:54:58.137Z,9.66
2023-03-19T07:55:58.161Z,9.64
2023-03-19T07:56:58.103Z,9.61
2023-03-19T07:57:58.084Z,9.74
2023-03-19T07:58:58.095Z,9.60
2023-03-19T07:59:58.070Z,9.71
2023-03-19T08:00:58.057Z,9.75
2023-03-19T08:01:58.082Z,9.78
2023-03-19T08:02:58.005Z,9.71
2023-03-19T08:03:57.995Z,9.71
2023-03-19T08:04:57.978Z,9.71
2023-03-19T08:05:57.961Z,9.86
2023-03-19T08:06:57.987Z,9.81
2023-03-19T08:07:57.930Z,9.89
2023-03-19T08:08:57.989Z,9.86
2023-03-19T08:09:57.901Z,9.81
2023-03-19T08:10:57.892Z,9.90
2023-03-19T08:11:57.993Z,9.91
2023-03-19T08:12:57.852Z,9.93
2023-03-19T08:13:57.839Z,9.97
2023-03-19T08:14:57.815Z,10.08
2023-03-19T08:15:57.803Z,10.08
2023-03-19T08:16:57.852Z,10.15
2023-03-19T08:17:57.801Z,10.27
2023-03-19T08:18:57.756Z,10.26
2023-03-19T08:19:57.736Z,10.32
2023-03-19T08:20:57.726Z,10.34
2023-03-19T08:21:57.708Z,10.36
2023-03-19T08:22:57.760Z,10.25
2023-03-19T08:23:57.709Z,10.29
2023-03-19T08:24:57.665Z,10.20
2023-03-19T08:25:57.658Z,10.26
2023-03-19T08:26:57.638Z,10.25
2023-03-19T08:27:57.615Z,10.26
2023-03-19T08:28:58.080Z,10.29
2023-03-19T08:29:57.588Z,10.29
2023-03-19T08:30:57.597Z,10.32
2023-03-19T08:31:57.553Z,10.34
2023-03-19T08:32:57.631Z,10.33
2023-03-19T08:33:57.523Z,10.41
2023-03-19T08:34:57.509Z,10.41
2023-03-19T08:35:57.620Z,10.42
2023-03-19T08:36:57.554Z,10.41
2023-03-19T08:37:57.464Z,10.52
2023-03-19T08:38:57.529Z,10.68
2023-03-19T08:39:57.500Z,10.70
2023-03-19T08:40:57.418Z,10.70
2023-03-19T08:41:57.405Z,10.79
2023-03-19T08:42:57.390Z,10.85
2023-03-19T08:43:57.379Z,10.85
2023-03-19T08:44:57.363Z,10.88
2023-03-19T08:45:57.414Z,10.89
2023-03-19T08:46:57.328Z,10.97
2023-03-19T08:47:57.331Z,10.99
2023-03-19T08:48:57.348Z,11.07
2023-03-19T08:49:57.325Z,11.21
2023-03-19T08:50:57.295Z,11.36
2023-03-19T08:51:57.253Z,11.42
2023-03-19T08:52:57.242Z,11.51
2023-03-19T08:53:57.249Z,11.55
2023-03-19T08:54:57.261Z,11.60
2023-03-19T08:55:57.208Z,11.72
2023-03-19T08:56:57.188Z,11.80
2023-03-19T08:57:57.168Z,11.94
2023-03-19T08:58:57.187Z,12.02
2023-03-19T08:59:57.154Z,12.09
2023-03-19T09:00:57.151Z,12.09
2023-03-19T09:01:57.203Z,12.04
2023-03-19T09:02:57.107Z,12.02
2023-03-19T09:03:57.085Z,12.13
2023-03-19T09:04:57.099Z,12.07
2023-03-19T09:05:57.080Z,12.13
2023-03-19T09:06:57.041Z,12.24
2023-03-19T09:07:57.036Z,12.27
2023-03-19T09:08:57.008Z,12.28
2023-03-19T09:09:57.028Z,12.23
2023-03-19T09:10:57.039Z,12.17
2023-03-19T09:11:56.975Z,12.20
2023-03-19T09:12:56.960Z,12.17
2023-03-19T09:13:56.949Z,12.07
2023-03-19T09:14:56.931Z,11.96
2023-03-19T09:15:56.990Z,11.98
2023-03-19T09:16:56.900Z,11.94
2023-03-19T09:17:56.890Z,11.94
2023-03-19T09:18:59.318Z,11.94
2023-03-19T09:19:56.858Z,11.99
2023-03-19T09:20:56.886Z,12.09
2023-03-19T09:21:56.857Z,12.09
2023-03-19T09:22:56.814Z,12.05
2023-03-19T09:23:56.806Z,11.99
2023-03-19T09:24:56.791Z,11.94
2023-03-19T09:25:56.777Z,11.94
2023-03-19T09:26:56.790Z,11.82
2023-03-19T09:27:56.746Z,11.85
2023-03-19T09:28:56.748Z,11.85
2023-03-19T09:29:56.717Z,11.80
2023-03-19T09:30:56.759Z,11.86
2023-03-19T09:31:56.719Z,12.01
2023-03-19T09:32:56.735Z,12.17
2023-03-19T09:33:56.738Z,12.28
2023-03-19T09:34:56.645Z,12.29
2023-03-19T09:35:56.655Z,12.45
2023-03-19T09:36:56.635Z,12.49
2023-03-19T09:37:56.644Z,12.50
2023-03-19T09:38:56.604Z,12.52
2023-03-19T09:39:56.581Z,12.50
2023-03-19T09:40:56.565Z,12.52
2023-03-19T09:41:56.552Z,12.59
2023-03-19T09:42:56.548Z,12.49
2023-03-19T09:43:56.528Z,12.37
2023-03-19T09:44:56.543Z,12.28
2023-03-19T09:45:56.528Z,12.23
2023-03-19T09:46:56.526Z,12.13
2023-03-19T09:47:56.472Z,12.19
2023-03-19T09:48:56.462Z,12.13
2023-03-19T09:49:56.448Z,12.13
2023-03-19T09:50:56.456Z,12.14
2023-03-19T09:51:56.419Z,12.14
2023-03-19T09:52:56.407Z,12.20
2023-03-19T09:53:56.406Z,12.31
2023-03-19T09:54:56.373Z,12.23
2023-03-19T09:55:56.371Z,12.32
2023-03-19T09:56:56.346Z,12.41
2023-03-19T09:57:56.330Z,12.46
2023-03-19T09:58:56.316Z,12.49
2023-03-19T09:59:56.331Z,12.47
2023-03-19T10:00:56.300Z,12.35
2023-03-19T10:01:56.345Z,12.39
2023-03-19T10:02:56.272Z,12.41
2023-03-19T10:03:56.287Z,12.50
2023-03-19T10:04:56.246Z,12.52
2023-03-19T10:05:56.280Z,12.46
2023-03-19T10:06:56.213Z,12.52
2023-03-19T10:07:56.208Z,12.50
2023-03-19T10:08:56.182Z,12.50
2023-03-19T10:09:56.171Z,12.50
2023-03-19T10:10:56.154Z,12.50
2023-03-19T10:11:56.145Z,12.49
2023-03-19T10:12:56.120Z,12.52
2023-03-19T10:13:56.106Z,12.53
2023-03-19T10:14:56.991Z,12.50
2023-03-19T10:15:56.109Z,12.47
2023-03-19T10:16:56.116Z,12.54
2023-03-19T10:17:56.054Z,12.49
2023-03-19T10:18:56.307Z,12.45
2023-03-19T10:19:56.022Z,12.53
2023-03-19T10:20:56.022Z,12.49
2023-03-19T10:21:56.022Z,12.39
2023-03-19T10:22:55.989Z,12.37
2023-03-19T10:23:55.977Z,12.37
2023-03-19T10:24:55.967Z,12.45
2023-03-19T10:25:55.939Z,12.39
2023-03-19T10:26:55.980Z,12.37
2023-03-19T10:27:55.941Z,12.16
2023-03-19T10:28:55.898Z,12.31
2023-03-19T10:29:55.883Z,12.31
2023-03-19T10:30:58.078Z,12.24
2023-03-19T10:31:55.984Z,12.24
2023-03-19T10:32:55.878Z,12.28
2023-03-19T10:33:55.872Z,12.27
2023-03-19T10:34:55.813Z,12.27
2023-03-19T10:35:55.852Z,12.42
2023-03-19T10:36:55.785Z,12.41
2023-03-19T10:37:55.830Z,12.54
2023-03-19T10:38:55.754Z,12.57
2023-03-19T10:39:55.787Z,12.72
2023-03-19T10:40:55.734Z,12.72
2023-03-19T10:41:55.721Z,12.87
2023-03-19T10:42:55.701Z,13.01
2023-03-19T10:43:55.685Z,13.00
2023-03-19T10:44:55.683Z,13.00
2023-03-19T10:45:55.689Z,13.10
2023-03-19T10:46:55.647Z,13.00
2023-03-19T10:47:55.635Z,12.96
2023-03-19T10:48:55.620Z,12.95
2023-03-19T10:49:55.638Z,12.95
2023-03-19T10:50:55.595Z,12.89
2023-03-19T10:51:55.701Z,12.95
2023-03-19T10:52:55.580Z,12.89
2023-03-19T10:53:55.561Z,12.90
2023-03-19T10:54:55.546Z,12.86
2023-03-19T10:55:55.526Z,12.82
2023-03-19T10:56:55.560Z,12.93
2023-03-19T10:57:55.516Z,12.96
2023-03-19T10:58:55.500Z,13.00
2023-03-19T10:59:55.506Z,13.01
2023-03-19T11:00:55.550Z,13.10
2023-03-19T11:01:55.504Z,13.20
2023-03-19T11:02:55.428Z,13.22
2023-03-19T11:03:55.640Z,13.30
2023-03-19T11:04:55.432Z,13.19
2023-03-19T11:05:55.390Z,13.12
2023-03-19T11:06:55.378Z,13.26
2023-03-19T11:07:55.385Z,13.28
2023-03-19T11:08:55.372Z,13.39
2023-03-19T11:09:55.366Z,13.39
2023-03-19T11:10:55.335Z,13.32
2023-03-19T11:11:55.363Z,13.26
2023-03-19T11:12:55.321Z,13.25
2023-03-19T11:13:55.299Z,13.15
2023-03-19T11:14:55.331Z,13.04
2023-03-19T11:15:55.254Z,13.00
2023-03-19T11:16:55.398Z,13.01
2023-03-19T11:17:55.227Z,12.93
2023-03-19T11:18:55.231Z,12.93
2023-03-19T11:19:55.198Z,12.97
2023-03-19T11:20:55.188Z,12.82
2023-03-19T11:21:55.206Z,12.74
2023-03-19T11:22:55.188Z,12.74
2023-03-19T11:23:55.149Z,12.72
2023-03-19T11:24:55.131Z,12.74
2023-03-19T11:25:55.117Z,12.74
2023-03-19T11:26:55.107Z,12.72
2023-03-19T11:27:55.116Z,12.72
2023-03-19T11:28:55.086Z,12.83
2023-03-19T11:29:55.067Z,12.79
2023-03-19T11:30:55.050Z,12.74
2023-03-19T11:31:55.064Z,12.87
2023-03-19T11:32:55.099Z,12.86
2023-03-19T11:33:55.006Z,12.93
2023-03-19T11:34:55.003Z,12.96
2023-03-19T11:35:54.996Z,12.97
2023-03-19T11:36:54.971Z,12.97
2023-03-19T11:37:54.959Z,13.10
2023-03-19T11:38:54.964Z,13.19
2023-03-19T11:39:54.940Z,13.26
2023-03-19T11:40:54.911Z,13.45
2023-03-19T11:41:54.897Z,13.62
2023-03-19T11:42:54.887Z,13.70
2023-03-19T11:43:54.876Z,13.70
2023-03-19T11:44:55.532Z,13.75
2023-03-19T11:45:54.892Z,13.60
2023-03-19T11:46:54.854Z,13.55
2023-03-19T11:47:54.855Z,13.55
2023-03-19T11:48:54.805Z,13.51
2023-03-19T11:49:54.792Z,13.60
2023-03-19T11:50:54.788Z,13.77
2023-03-19T11:51:54.766Z,13.67
2023-03-19T11:52:54.753Z,13.73
2023-03-19T11:53:54.789Z,13.64
2023-03-19T11:54:54.727Z,13.81
2023-03-19T11:55:54.739Z,13.97
2023-03-19T11:56:54.704Z,14.02
2023-03-19T11:57:54.710Z,14.10
2023-03-19T11:58:54.707Z,14.14
2023-03-19T11:59:54.692Z,14.25
2023-03-19T12:00:54.659Z,14.17
2023-03-19T12:01:54.637Z,14.12
2023-03-19T12:02:54.631Z,14.09
2023-03-19T12:03:54.670Z,13.96
2023-03-19T12:04:54.616Z,13.70
2023-03-19T12:05:54.594Z,13.73
2023-03-19T12:06:54.579Z,13.73
2023-03-19T12:07:55.547Z,13.75
2023-03-19T12:08:54.638Z,13.63
2023-03-19T12:09:54.613Z,13.57
2023-03-19T12:10:54.548Z,13.51
2023-03-19T12:11:54.548Z,13.46
2023-03-19T12:12:54.506Z,13.46
2023-03-19T12:13:54.488Z,13.39
2023-03-19T12:14:54.537Z,13.41
2023-03-19T12:15:54.541Z,13.33
2023-03-19T12:16:54.458Z,13.36
2023-03-19T12:17:54.468Z,13.39
2023-03-19T12:18:54.424Z,13.39
2023-03-19T12:19:54.409Z,13.36
2023-03-19T12:20:54.436Z,13.36
2023-03-19T12:21:54.420Z,13.52
2023-03-19T12:22:54.374Z,13.54
2023-03-19T12:23:54.360Z,13.57
2023-03-19T12:24:54.360Z,13.60
2023-03-19T12:25:54.366Z,13.70
2023-03-19T12:26:54.317Z,13.85
2023-03-19T12:27:54.375Z,13.81
2023-03-19T12:28:54.291Z,13.95
2023-03-19T12:29:54.278Z,13.95
2023-03-19T12:30:54.329Z,13.96
2023-03-19T12:31:54.248Z,14.04
2023-03-19T12:32:54.340Z,14.12
2023-03-19T12:33:54.251Z,14.04
2023-03-19T12:34:54.229Z,14.27
2023-03-19T12:35:54.238Z,14.33
2023-03-19T12:36:54.186Z,14.36
2023-03-19T12:37:54.171Z,14.47
2023-03-19T12:38:54.188Z,14.47
2023-03-19T12:39:54.145Z,14.55
2023-03-19T12:40:54.145Z,14.64
2023-03-19T12:41:55.050Z,14.55
2023-03-19T12:42:54.110Z,14.45
2023-03-19T12:43:54.120Z,14.33
2023-03-19T12:44:54.098Z,14.17
2023-03-19T12:45:54.072Z,14.20
2023-03-19T12:46:57.834Z,14.09
2023-03-19T12:47:54.045Z,14.03
2023-03-19T12:48:54.053Z,14.06
2023-03-19T12:49:54.053Z,14.21
2023-03-19T12:50:54.010Z,14.17
2023-03-19T12:51:53.997Z,14.27
2023-03-19T12:52:53.992Z,14.46
2023-03-19T12:53:54.003Z,14.54
2023-03-19T12:54:53.958Z,14.52
2023-03-19T12:55:53.952Z,14.46
2023-03-19T12:56:53.942Z,14.50
2023-03-19T12:57:53.937Z,14.54
2023-03-19T12:58:53.911Z,14.58
2023-03-19T12:59:53.908Z,14.46
2023-03-19T13:00:53.892Z,14.39
2023-03-19T13:01:54.071Z,14.35
2023-03-19T13:02:53.966Z,14.29
2023-03-19T13:03:53.867Z,14.25
2023-03-19T13:04:53.947Z,14.33
2023-03-19T13:05:53.836Z,14.35
2023-03-19T13:06:53.832Z,14.42
2023-03-19T13:07:53.804Z,14.51